This is the latest recevied weather packets stored in our database for station/object N9EA. If no packets are shown the sender has not sent any weather packets the latest 1 day(s).
| Time | Temp. | Humidity | Pressure | Rain* | Wind** | Luminosity | Snow |
|---|---|---|---|---|---|---|---|
| 1778080264 | 11.11° C | 38% | 1015.3 hPa | 0 mm | - | 568 W/m² | - |
| 1778079961 | 11.67° C | 37% | 1015.3 hPa | 0 mm | - | 567 W/m² | - |
| 1778079052 | 10.56° C | 42% | 1015.4 hPa | 0 mm | - | 333 W/m² | - |
| 1778077539 | 9.44° C | 45% | 1015.2 hPa | 0 mm | - | 213 W/m² | - |
| 1778076027 | 8.89° C | 47% | 1015.2 hPa | 0 mm | - | 165 W/m² | - |
| 1778074510 | 8.33° C | 52% | 1015.1 hPa | 0 mm | - | 171 W/m² | - |
| 1778072691 | 7.22° C | 58% | 1014.9 hPa | 0 mm | - | 101 W/m² | - |
| 1778072389 | 7.22° C | 58% | 1014.9 hPa | 0 mm | - | 100 W/m² | - |
| 1778072087 | 7.22° C | 59% | 1014.9 hPa | 0 mm | - | 109 W/m² | - |
| 1778071482 | 6.67° C | 59% | 1014.5 hPa | 0 mm | - | 103 W/m² | - |
| 1778071180 | 6.67° C | 59% | 1014.5 hPa | 0 mm | - | 89 W/m² | - |
| 1778068758 | 6.11° C | 62% | 1013.6 hPa | 0 mm | - | 54 W/m² | - |
| 1778064219 | 3.89° C | 72% | 1012.5 hPa | 0 mm | - | 1 W/m² | - |
| 1778063009 | 4.44° C | 70% | 1012.6 hPa | 0 mm | - | 0 W/m² | - |
| 1778062706 | 4.44° C | 67% | 1012.5 hPa | 0 mm | - | 0 W/m² | - |
| 1778062100 | 4.44° C | 69% | 1012.5 hPa | 0 mm | - | 0 W/m² | - |
| 1778061193 | 4.44° C | 70% | 1012.4 hPa | 0 mm | - | 0 W/m² | - |
| 1778060890 | 5° C | 69% | 1012.4 hPa | 0 mm | - | 0 W/m² | - |
| 1778059983 | 5° C | 69% | 1012.3 hPa | 0 mm | - | 0 W/m² | - |
| 1778058773 | 5.56° C | 68% | 1012 hPa | 0 mm | - | 0 W/m² | - |
| 1778058471 | 5.56° C | 68% | 1011.9 hPa | 0 mm | - | 0 W/m² | - |
| 1778057864 | 5.56° C | 68% | 1012 hPa | 0 mm | - | 0 W/m² | - |
| 1778057257 | 6.11° C | 68% | 1012 hPa | 0 mm | - | 0 W/m² | - |
| 1778055741 | 5.56° C | 69% | 1011.7 hPa | 0 mm | - | 0 W/m² | - |
| 1778055439 | 5.56° C | 69% | 1011.9 hPa | 0 mm | - | 0 W/m² | - |
* Rain latest hour (hover to see other rain measurements)
** Current wind speed in m/s (hover to see current wind gust speed)